createdAt,value
2024-04-22T00:01:45.691Z,1.40
2024-04-22T00:04:13.864Z,1.30
2024-04-22T00:06:45.031Z,1.20
2024-04-22T00:09:14.209Z,1.30
2024-04-22T00:11:42.128Z,1.40
2024-04-22T00:14:12.947Z,0.90
2024-04-22T00:16:41.296Z,1.20
2024-04-22T00:19:10.302Z,1.20
2024-04-22T00:21:38.143Z,1.40
2024-04-22T00:24:08.536Z,1.10
2024-04-22T00:26:36.352Z,1.20
2024-04-22T00:29:04.073Z,1.10
2024-04-22T00:31:31.879Z,1.10
2024-04-22T00:33:59.633Z,1.00
2024-04-22T00:36:27.379Z,1.40
2024-04-22T00:38:55.127Z,1.30
2024-04-22T00:41:27.416Z,1.00
2024-04-22T00:43:55.182Z,1.60
2024-04-22T00:46:22.987Z,1.20
2024-04-22T00:48:51.691Z,1.30
2024-04-22T00:51:19.469Z,1.10
2024-04-22T00:53:47.823Z,1.10
2024-04-22T00:56:16.932Z,1.10
2024-04-22T00:58:47.219Z,1.20
2024-04-22T01:01:18.269Z,1.10
2024-04-22T01:03:46.181Z,1.10
2024-04-22T01:06:13.918Z,1.40
2024-04-22T01:08:41.717Z,1.60
2024-04-22T01:11:09.544Z,1.20
2024-04-22T01:13:37.981Z,1.20
2024-04-22T01:16:05.994Z,1.00
2024-04-22T01:18:33.769Z,1.10
2024-04-22T01:21:01.638Z,1.20
2024-04-22T01:23:31.916Z,1.30
2024-04-22T01:26:03.528Z,1.20
2024-04-22T01:28:31.432Z,1.20
2024-04-22T01:30:59.574Z,1.40
2024-04-22T01:33:27.391Z,1.00
2024-04-22T01:35:55.196Z,1.10
2024-04-22T01:38:23.103Z,1.20
2024-04-22T01:40:50.930Z,1.20
2024-04-22T01:43:18.876Z,1.30
2024-04-22T01:45:46.720Z,1.00
2024-04-22T01:48:14.631Z,1.00
2024-04-22T01:50:42.495Z,1.10
2024-04-22T01:53:10.374Z,1.00
2024-04-22T01:55:38.370Z,1.00
2024-04-22T01:58:06.266Z,1.00
2024-04-22T02:00:34.177Z,1.70
2024-04-22T02:03:02.158Z,0.90
2024-04-22T02:05:30.197Z,1.20
2024-04-22T02:07:57.977Z,1.40
2024-04-22T02:10:26.074Z,1.10
2024-04-22T02:12:53.995Z,1.30
2024-04-22T02:15:21.865Z,1.50
2024-04-22T02:17:52.411Z,1.90
2024-04-22T02:20:20.279Z,1.60
2024-04-22T02:22:48.224Z,1.60
2024-04-22T02:25:16.179Z,2.00
2024-04-22T02:27:44.256Z,1.90
2024-04-22T02:30:12.156Z,1.80
2024-04-22T02:32:39.985Z,1.60
2024-04-22T02:35:07.780Z,1.90
2024-04-22T02:37:35.709Z,2.30
2024-04-22T02:40:03.921Z,1.90
2024-04-22T02:42:31.929Z,2.10
2024-04-22T02:44:59.698Z,2.00
2024-04-22T02:47:27.713Z,1.60
2024-04-22T02:49:55.665Z,2.00
2024-04-22T02:52:23.474Z,1.90
2024-04-22T02:54:51.333Z,2.30
2024-04-22T02:57:19.120Z,1.90
2024-04-22T02:59:46.926Z,2.30
2024-04-22T03:02:14.827Z,1.90
2024-04-22T03:04:42.669Z,2.00
2024-04-22T03:07:10.780Z,2.00
2024-04-22T03:09:41.536Z,2.00
2024-04-22T03:12:10.987Z,2.40
2024-04-22T03:14:39.425Z,2.70
2024-04-22T03:17:07.480Z,3.50
2024-04-22T03:19:35.454Z,4.20
2024-04-22T03:22:03.955Z,12.60
2024-04-22T03:24:31.851Z,13.00
2024-04-22T03:26:59.703Z,8.40
2024-04-22T03:29:28.828Z,11.40
2024-04-22T03:31:56.755Z,11.40
2024-04-22T03:34:24.694Z,10.90
2024-04-22T03:36:52.473Z,13.90
2024-04-22T03:39:20.228Z,12.10
2024-04-22T03:41:48.132Z,8.70
2024-04-22T03:44:16.027Z,4.90
2024-04-22T03:47:02.805Z,2.60
2024-04-22T03:49:49.466Z,2.30
2024-04-22T03:52:17.560Z,2.50
2024-04-22T03:54:45.581Z,4.00
2024-04-22T03:57:13.408Z,4.40
2024-04-22T03:59:41.329Z,3.60
2024-04-22T04:02:09.329Z,3.40
2024-04-22T04:04:37.749Z,2.90
2024-04-22T04:07:05.895Z,2.50
2024-04-22T04:09:33.765Z,7.60
2024-04-22T04:12:01.941Z,8.90
2024-04-22T04:14:29.740Z,10.60
2024-04-22T04:16:57.732Z,19.60
2024-04-22T04:19:27.211Z,19.10
2024-04-22T04:21:55.804Z,12.00
2024-04-22T04:24:23.748Z,12.40
2024-04-22T04:26:51.605Z,14.20
2024-04-22T04:29:19.292Z,12.10
2024-04-22T04:31:47.126Z,6.10
2024-04-22T04:34:15.467Z,5.90
2024-04-22T04:36:43.253Z,6.20
2024-04-22T04:39:11.150Z,5.60
2024-04-22T04:41:39.539Z,4.70
2024-04-22T04:44:08.466Z,4.30
2024-04-22T04:46:37.098Z,4.70
2024-04-22T04:49:04.941Z,5.90
2024-04-22T04:51:32.723Z,5.10
2024-04-22T04:54:00.731Z,4.70
2024-04-22T04:56:28.743Z,5.80
2024-04-22T04:58:56.693Z,5.10
2024-04-22T05:01:24.887Z,4.90
2024-04-22T05:03:52.778Z,3.80
2024-04-22T05:06:20.634Z,4.00
2024-04-22T05:08:48.371Z,5.10
2024-04-22T05:11:16.569Z,5.20
2024-04-22T05:13:44.639Z,3.60
2024-04-22T05:16:12.599Z,4.30
2024-04-22T05:18:43.382Z,4.90
2024-04-22T05:21:11.982Z,4.80
2024-04-22T05:23:46.528Z,3.90
2024-04-22T05:26:14.806Z,3.30
2024-04-22T05:28:44.777Z,4.30
2024-04-22T05:31:14.007Z,4.10
2024-04-22T05:34:00.219Z,4.10
2024-04-22T05:36:28.154Z,4.00
2024-04-22T05:38:56.185Z,3.90
2024-04-22T05:41:24.248Z,6.80
2024-04-22T05:43:52.138Z,5.60
2024-04-22T05:46:20.193Z,5.60
2024-04-22T05:48:48.095Z,7.40
2024-04-22T05:51:15.924Z,9.20
2024-04-22T05:53:44.503Z,9.20
2024-04-22T05:56:12.475Z,7.40
2024-04-22T05:58:40.327Z,5.40
2024-04-22T06:01:08.340Z,4.70
2024-04-22T06:03:36.297Z,5.90
2024-04-22T06:06:04.730Z,3.70
2024-04-22T06:08:32.541Z,2.90
2024-04-22T06:11:01.473Z,2.70
2024-04-22T06:13:29.568Z,3.30
2024-04-22T06:15:58.451Z,3.60
2024-04-22T06:18:26.782Z,4.00
2024-04-22T06:20:54.542Z,3.00
2024-04-22T06:23:22.416Z,2.70
2024-04-22T06:25:50.303Z,2.60
2024-04-22T06:28:18.677Z,2.30
2024-04-22T06:30:48.143Z,1.90
2024-04-22T06:33:15.897Z,2.10
2024-04-22T06:35:43.719Z,2.00
2024-04-22T06:38:11.523Z,2.10
2024-04-22T06:40:42.574Z,2.20
2024-04-22T06:43:12.221Z,4.30
2024-04-22T06:45:40.892Z,4.90
2024-04-22T06:48:08.697Z,6.00
2024-04-22T06:50:37.185Z,6.40
2024-04-22T06:53:05.072Z,4.90
2024-04-22T06:55:32.905Z,2.00
2024-04-22T06:58:00.754Z,1.60
2024-04-22T07:00:29.651Z,1.50
2024-04-22T07:02:58.165Z,1.60
2024-04-22T07:05:26.292Z,1.50
2024-04-22T07:07:54.129Z,1.10
2024-04-22T07:10:21.994Z,0.80
2024-04-22T07:12:49.951Z,1.00
2024-04-22T07:15:19.699Z,0.80
2024-04-22T07:17:49.971Z,1.00
2024-04-22T07:20:18.146Z,1.10
2024-04-22T07:22:46.025Z,0.90
2024-04-22T07:25:13.888Z,1.10
2024-04-22T07:27:43.696Z,1.10
2024-04-22T07:30:12.317Z,0.80
2024-04-22T07:32:40.673Z,0.80
2024-04-22T07:35:09.630Z,0.80
2024-04-22T07:37:44.439Z,1.30
2024-04-22T07:40:20.622Z,0.90
2024-04-22T07:42:48.952Z,0.80
2024-04-22T07:45:22.737Z,0.90
2024-04-22T07:47:53.328Z,1.20
2024-04-22T07:50:21.532Z,1.30
2024-04-22T07:52:51.725Z,1.50
2024-04-22T07:55:19.980Z,1.50
2024-04-22T07:57:50.281Z,1.30
2024-04-22T08:00:20.343Z,1.10
2024-04-22T08:02:49.147Z,0.80
2024-04-22T08:05:17.633Z,1.00
2024-04-22T08:07:48.809Z,0.80
2024-04-22T08:10:17.207Z,1.10
2024-04-22T08:12:45.084Z,1.30
2024-04-22T08:15:14.059Z,0.90
2024-04-22T08:17:41.853Z,1.00
2024-04-22T08:20:10.358Z,0.90
2024-04-22T08:22:38.253Z,1.40
2024-04-22T08:25:06.327Z,2.30
2024-04-22T08:27:34.280Z,1.20
2024-04-22T08:30:02.107Z,0.70
2024-04-22T08:32:30.296Z,1.00
2024-04-22T08:34:59.007Z,0.90
2024-04-22T08:37:27.327Z,0.90
2024-04-22T08:39:55.171Z,1.20
2024-04-22T08:42:24.790Z,1.00
2024-04-22T08:44:53.896Z,0.70
2024-04-22T08:47:22.215Z,0.70
2024-04-22T08:49:50.409Z,0.70
2024-04-22T08:52:18.802Z,1.30
2024-04-22T08:54:46.978Z,0.80
2024-04-22T08:57:15.727Z,0.80
2024-04-22T08:59:45.466Z,0.80
2024-04-22T09:02:16.023Z,0.90
2024-04-22T09:04:46.950Z,0.70
2024-04-22T09:07:19.952Z,1.00
2024-04-22T09:10:05.033Z,0.80
2024-04-22T09:12:36.631Z,0.60
2024-04-22T09:15:06.298Z,0.90
2024-04-22T09:17:34.985Z,1.10
2024-04-22T09:20:04.684Z,0.60
2024-04-22T09:22:32.673Z,0.60
2024-04-22T09:25:01.099Z,0.70
2024-04-22T09:27:29.570Z,0.70
2024-04-22T09:30:05.178Z,0.80
2024-04-22T09:32:33.787Z,0.80
2024-04-22T09:35:19.428Z,0.80
2024-04-22T09:37:50.587Z,0.60
2024-04-22T09:40:20.412Z,0.70
2024-04-22T09:42:49.710Z,0.60
2024-04-22T09:45:17.738Z,1.00
2024-04-22T09:47:47.406Z,0.70
2024-04-22T09:50:17.439Z,0.70
2024-04-22T09:52:48.300Z,0.50
2024-04-22T09:55:17.138Z,0.60
2024-04-22T09:57:48.706Z,0.90
2024-04-22T10:00:18.042Z,0.60
2024-04-22T10:02:46.789Z,0.60
2024-04-22T10:05:16.421Z,0.50
2024-04-22T10:07:44.448Z,0.70
2024-04-22T10:10:13.667Z,0.70
2024-04-22T10:12:41.818Z,0.80
2024-04-22T10:15:14.794Z,1.20
2024-04-22T10:17:46.343Z,1.00
2024-04-22T10:20:18.676Z,0.90
2024-04-22T10:22:46.777Z,1.00
2024-04-22T10:25:19.631Z,0.80
2024-04-22T10:27:47.683Z,0.50
2024-04-22T10:30:15.934Z,1.00
2024-04-22T10:32:43.873Z,0.60
2024-04-22T10:35:11.995Z,0.80
2024-04-22T10:37:39.924Z,1.20
2024-04-22T10:40:09.093Z,0.90
2024-04-22T10:42:36.996Z,0.90
2024-04-22T10:45:05.585Z,1.00
2024-04-22T10:47:34.695Z,0.80
2024-04-22T10:50:02.586Z,0.90
2024-04-22T10:52:30.995Z,1.20
2024-04-22T10:54:59.467Z,1.00
2024-04-22T10:57:27.421Z,1.30
2024-04-22T10:59:57.089Z,0.90
2024-04-22T11:02:25.209Z,0.90
2024-04-22T11:04:53.235Z,0.70
2024-04-22T11:07:24.573Z,0.80
2024-04-22T11:09:52.922Z,0.70
2024-04-22T11:12:24.933Z,1.20
2024-04-22T11:14:54.915Z,0.70
2024-04-22T11:17:24.543Z,0.80
2024-04-22T11:19:53.396Z,1.50
2024-04-22T11:22:22.445Z,2.30
2024-04-22T11:24:50.346Z,2.10
2024-04-22T11:27:18.333Z,1.80
2024-04-22T11:29:46.270Z,2.90
2024-04-22T11:32:14.228Z,2.10
2024-04-22T11:34:42.157Z,2.00
2024-04-22T11:37:10.158Z,3.30
2024-04-22T11:39:37.910Z,2.60
2024-04-22T11:42:06.142Z,2.90
2024-04-22T11:44:34.018Z,2.10
2024-04-22T11:47:02.351Z,2.00
2024-04-22T11:49:30.278Z,2.10
2024-04-22T11:51:58.204Z,2.10
2024-04-22T11:54:26.336Z,2.40
2024-04-22T11:56:54.232Z,2.20
2024-04-22T11:59:22.098Z,2.20
2024-04-22T12:01:51.236Z,1.80
2024-04-22T12:04:19.384Z,1.80
2024-04-22T12:06:48.070Z,1.30
2024-04-22T12:09:15.880Z,1.80
2024-04-22T12:11:43.781Z,2.00
2024-04-22T12:14:11.705Z,3.50
2024-04-22T12:16:39.721Z,2.60
2024-04-22T12:19:07.721Z,1.80
2024-04-22T12:21:35.841Z,1.60
2024-04-22T12:24:03.865Z,1.50
2024-04-22T12:26:31.795Z,1.20
2024-04-22T12:28:59.575Z,1.30
2024-04-22T12:31:27.583Z,0.90
2024-04-22T12:34:05.893Z,1.30
2024-04-22T12:36:38.361Z,1.30
2024-04-22T12:39:06.291Z,1.30
2024-04-22T12:41:34.311Z,0.80
2024-04-22T12:44:04.163Z,1.30
2024-04-22T12:46:42.057Z,2.30
2024-04-22T12:49:28.551Z,3.00
2024-04-22T12:51:56.320Z,2.20
2024-04-22T12:54:24.412Z,2.30
2024-04-22T12:56:52.641Z,1.30
2024-04-22T12:59:20.661Z,1.70
2024-04-22T13:01:48.516Z,1.00
2024-04-22T13:04:16.591Z,1.10
2024-04-22T13:06:44.458Z,1.40
2024-04-22T13:09:14.364Z,1.40
2024-04-22T13:11:42.541Z,2.00
2024-04-22T13:14:10.685Z,2.70
2024-04-22T13:16:38.511Z,2.40
2024-04-22T13:19:07.927Z,1.90
2024-04-22T13:21:36.190Z,2.10
2024-04-22T13:24:04.347Z,3.20
2024-04-22T13:26:32.180Z,1.60
2024-04-22T13:29:00.166Z,1.80
2024-04-22T13:31:36.228Z,1.90
2024-04-22T13:34:11.670Z,1.60
2024-04-22T13:36:39.558Z,1.70
2024-04-22T13:39:07.766Z,1.70
2024-04-22T13:41:35.647Z,1.80
2024-04-22T13:44:03.540Z,2.00
2024-04-22T13:46:31.306Z,1.90
2024-04-22T13:48:59.153Z,1.50
2024-04-22T13:51:27.752Z,1.90
2024-04-22T13:53:55.597Z,1.80
2024-04-22T13:56:23.506Z,1.70
2024-04-22T13:58:51.389Z,2.40
2024-04-22T14:01:19.383Z,2.50
2024-04-22T14:03:48.966Z,1.70
2024-04-22T14:06:17.335Z,2.70
2024-04-22T14:08:46.777Z,2.10
2024-04-22T14:11:14.822Z,2.10
2024-04-22T14:13:42.883Z,2.30
2024-04-22T14:16:10.812Z,2.30
2024-04-22T14:18:38.670Z,2.40
2024-04-22T14:21:06.612Z,2.50
2024-04-22T14:23:34.352Z,2.70
2024-04-22T14:26:02.196Z,2.60
2024-04-22T14:28:30.068Z,2.70
2024-04-22T14:30:57.853Z,3.20
2024-04-22T14:33:25.843Z,3.50
2024-04-22T14:35:53.835Z,3.20
2024-04-22T14:38:22.000Z,2.20
2024-04-22T14:40:50.082Z,3.20
2024-04-22T14:43:18.124Z,2.80
2024-04-22T14:45:46.003Z,2.80
2024-04-22T14:48:13.872Z,5.00
2024-04-22T14:50:41.830Z,7.10
2024-04-22T14:53:09.763Z,4.70
2024-04-22T14:55:39.231Z,3.40
2024-04-22T14:58:07.632Z,4.90
2024-04-22T15:00:35.429Z,4.30
2024-04-22T15:03:04.509Z,3.90
2024-04-22T15:05:32.824Z,3.20
2024-04-22T15:08:00.757Z,4.00
2024-04-22T15:10:29.089Z,3.30
2024-04-22T15:12:56.844Z,4.50
2024-04-22T15:15:24.681Z,3.30
2024-04-22T15:17:52.532Z,4.30
2024-04-22T15:20:20.964Z,4.70
2024-04-22T15:22:48.864Z,4.60
2024-04-22T15:25:16.933Z,8.30
2024-04-22T15:27:45.009Z,13.00
2024-04-22T15:30:12.983Z,8.90
2024-04-22T15:32:42.725Z,5.20
2024-04-22T15:35:10.869Z,5.30
2024-04-22T15:37:38.796Z,7.30
2024-04-22T15:40:08.647Z,6.80
2024-04-22T15:42:36.734Z,5.40
2024-04-22T15:45:05.242Z,2.90
2024-04-22T15:47:33.254Z,7.90
2024-04-22T15:50:01.194Z,5.00
2024-04-22T15:52:29.338Z,3.10
2024-04-22T15:54:57.393Z,2.90
2024-04-22T15:57:25.189Z,2.70
2024-04-22T16:00:01.811Z,3.10
2024-04-22T16:02:37.172Z,6.00
2024-04-22T16:05:05.976Z,7.30
2024-04-22T16:07:34.007Z,4.70
2024-04-22T16:10:02.111Z,3.30
2024-04-22T16:12:29.968Z,3.00
2024-04-22T16:14:59.131Z,4.10
2024-04-22T16:17:27.793Z,4.40
2024-04-22T16:19:55.904Z,5.40
2024-04-22T16:22:24.329Z,4.70
2024-04-22T16:24:52.157Z,4.10
2024-04-22T16:27:20.191Z,3.20
2024-04-22T16:29:48.328Z,2.40
2024-04-22T16:32:16.312Z,2.50
2024-04-22T16:34:44.364Z,1.60
2024-04-22T16:37:12.394Z,2.70
2024-04-22T16:39:42.083Z,2.80
2024-04-22T16:42:10.007Z,3.20
2024-04-22T16:44:38.144Z,3.60
2024-04-22T16:47:06.185Z,3.00
2024-04-22T16:49:34.003Z,3.30
2024-04-22T16:52:02.213Z,4.10
2024-04-22T16:54:30.126Z,5.20
2024-04-22T16:56:58.141Z,5.80
2024-04-22T16:59:26.026Z,5.90
2024-04-22T17:01:53.961Z,4.60
2024-04-22T17:04:21.918Z,6.90
2024-04-22T17:06:49.772Z,8.90
2024-04-22T17:09:23.145Z,7.20
2024-04-22T17:11:51.146Z,5.50
2024-04-22T17:14:19.021Z,6.80
2024-04-22T17:16:46.856Z,4.50
2024-04-22T17:19:14.808Z,4.20
2024-04-22T17:21:42.953Z,5.20
2024-04-22T17:24:10.861Z,5.10
2024-04-22T17:26:39.829Z,5.00
2024-04-22T17:29:07.745Z,3.80
2024-04-22T17:31:35.831Z,4.50
2024-04-22T17:34:06.731Z,5.40
2024-04-22T17:36:34.520Z,6.60
2024-04-22T17:39:02.400Z,6.30
2024-04-22T17:41:30.640Z,7.20
2024-04-22T17:43:58.521Z,6.90
2024-04-22T17:46:26.435Z,6.20
2024-04-22T17:48:54.356Z,5.40
2024-04-22T17:51:22.493Z,5.90
2024-04-22T17:53:50.782Z,10.60
2024-04-22T17:56:19.135Z,9.60
2024-04-22T17:58:47.442Z,9.10
2024-04-22T18:01:15.422Z,7.30
2024-04-22T18:03:44.262Z,7.90
2024-04-22T18:06:12.164Z,8.10
2024-04-22T18:08:43.129Z,10.20
2024-04-22T18:11:11.007Z,11.20
2024-04-22T18:13:38.855Z,11.00
2024-04-22T18:16:07.103Z,10.80
2024-04-22T18:18:34.941Z,11.00
2024-04-22T18:21:05.754Z,13.20
2024-04-22T18:23:33.906Z,14.30
2024-04-22T18:26:09.461Z,13.60
2024-04-22T18:28:43.913Z,14.80
2024-04-22T18:31:12.133Z,14.20
2024-04-22T18:33:40.171Z,15.00
2024-04-22T18:36:08.236Z,17.30
2024-04-22T18:38:36.167Z,17.60
2024-04-22T18:41:04.736Z,15.30
2024-04-22T18:43:34.246Z,13.90
2024-04-22T18:46:02.077Z,14.70
2024-04-22T18:48:30.058Z,13.60
2024-04-22T18:50:59.801Z,12.80
2024-04-22T18:53:27.745Z,16.10
2024-04-22T18:55:55.695Z,15.00
2024-04-22T18:58:28.717Z,15.30
2024-04-22T19:00:58.574Z,16.60
2024-04-22T19:03:26.591Z,21.30
2024-04-22T19:05:54.449Z,22.10
2024-04-22T19:08:22.270Z,24.70
2024-04-22T19:10:50.712Z,20.00
2024-04-22T19:13:18.737Z,20.20
2024-04-22T19:15:48.012Z,22.40
2024-04-22T19:18:16.184Z,21.80
2024-04-22T19:20:44.037Z,22.30
2024-04-22T19:23:12.421Z,21.70
2024-04-22T19:25:41.598Z,22.60
2024-04-22T19:28:09.725Z,28.00
2024-04-22T19:30:41.395Z,35.90
2024-04-22T19:33:09.476Z,46.10
2024-04-22T19:35:37.459Z,56.20
2024-04-22T19:38:05.608Z,49.20
2024-04-22T19:40:36.055Z,42.60
2024-04-22T19:43:04.342Z,44.60
2024-04-22T19:45:32.301Z,45.40
2024-04-22T19:48:00.217Z,49.60
2024-04-22T19:50:28.239Z,50.30
2024-04-22T19:52:56.490Z,54.00
2024-04-22T19:55:24.362Z,57.50
2024-04-22T19:57:53.504Z,56.60
2024-04-22T20:00:25.278Z,53.40
2024-04-22T20:02:53.132Z,48.30
2024-04-22T20:05:22.231Z,45.10
2024-04-22T20:07:50.093Z,42.40
2024-04-22T20:10:18.241Z,43.60
2024-04-22T20:12:47.667Z,48.40
2024-04-22T20:15:40.450Z,53.80
2024-04-22T20:18:14.426Z,50.70
2024-04-22T20:20:43.833Z,50.10
2024-04-22T20:23:11.772Z,45.70
2024-04-22T20:25:39.834Z,46.10
2024-04-22T20:28:07.917Z,52.40
2024-04-22T20:30:36.236Z,49.70
2024-04-22T20:33:04.442Z,36.00
2024-04-22T20:35:32.389Z,36.70
2024-04-22T20:38:00.442Z,39.50
2024-04-22T20:40:28.567Z,44.30
2024-04-22T20:42:56.455Z,52.30
2024-04-22T20:45:25.991Z,58.90
2024-04-22T20:47:53.848Z,64.50
2024-04-22T20:50:21.632Z,79.40
2024-04-22T20:52:51.578Z,155.60
2024-04-22T20:55:19.929Z,89.90
2024-04-22T20:57:47.933Z,52.40
2024-04-22T21:00:16.753Z,53.40
2024-04-22T21:02:44.619Z,50.90
2024-04-22T21:05:12.506Z,61.00
2024-04-22T21:07:40.607Z,53.20
2024-04-22T21:10:09.232Z,35.10
2024-04-22T21:12:37.155Z,28.50
2024-04-22T21:15:05.512Z,30.80
2024-04-22T21:17:33.529Z,24.90
2024-04-22T21:20:01.538Z,18.60
2024-04-22T21:22:29.363Z,13.50
2024-04-22T21:24:57.433Z,13.70
2024-04-22T21:27:26.084Z,15.20
2024-04-22T21:29:54.033Z,18.80
2024-04-22T21:32:21.948Z,15.20
2024-04-22T21:34:49.971Z,14.00
2024-04-22T21:37:17.947Z,12.60
2024-04-22T21:39:45.865Z,12.30
2024-04-22T21:42:13.788Z,11.60
2024-04-22T21:44:41.665Z,10.00
2024-04-22T21:47:09.481Z,11.60
2024-04-22T21:49:37.304Z,11.80
2024-04-22T21:52:07.754Z,12.40
2024-04-22T21:54:35.618Z,13.50
2024-04-22T21:58:00.399Z,15.40
2024-04-22T22:01:25.488Z,27.90
2024-04-22T22:04:50.561Z,27.70
2024-04-22T22:07:18.361Z,24.10
2024-04-22T22:09:48.424Z,22.20
2024-04-22T22:12:19.822Z,22.10
2024-04-22T22:14:49.397Z,21.50
2024-04-22T22:17:20.465Z,21.90
2024-04-22T22:19:50.225Z,38.40
2024-04-22T22:22:18.392Z,16.40
2024-04-22T22:24:46.705Z,14.40
2024-04-22T22:27:15.651Z,10.90
2024-04-22T22:29:43.558Z,8.60
2024-04-22T22:32:11.427Z,7.20
2024-04-22T22:34:39.272Z,7.70
2024-04-22T22:37:08.657Z,8.60
2024-04-22T22:39:36.425Z,9.10
2024-04-22T22:42:04.433Z,8.90
2024-04-22T22:44:32.524Z,9.80
2024-04-22T22:47:10.301Z,8.10
2024-04-22T22:49:38.261Z,8.50
2024-04-22T22:52:06.195Z,8.00
2024-04-22T22:54:34.054Z,8.40
2024-04-22T22:57:01.933Z,9.00
2024-04-22T22:59:29.696Z,8.60
2024-04-22T23:01:58.447Z,9.80
2024-04-22T23:04:26.425Z,9.10
2024-04-22T23:07:02.874Z,9.60
2024-04-22T23:09:30.749Z,10.80
2024-04-22T23:11:58.597Z,10.60
2024-04-22T23:14:26.614Z,10.30
2024-04-22T23:16:54.661Z,9.90
2024-04-22T23:19:22.695Z,9.90
2024-04-22T23:21:50.543Z,9.80
2024-04-22T23:24:18.449Z,11.20
2024-04-22T23:26:55.916Z,17.70
2024-04-22T23:29:23.875Z,9.90
2024-04-22T23:31:51.788Z,7.90
2024-04-22T23:34:19.757Z,10.90
2024-04-22T23:36:48.989Z,22.10
2024-04-22T23:39:17.561Z,17.90
2024-04-22T23:41:46.015Z,13.80
2024-04-22T23:44:14.250Z,11.60
2024-04-22T23:46:57.322Z,12.70
2024-04-22T23:49:26.691Z,9.90
2024-04-22T23:51:55.041Z,10.40
2024-04-22T23:54:22.988Z,9.40
2024-04-22T23:57:03.750Z,9.50
2024-04-22T23:59:31.697Z,8.20
